Detalii statie SOMALEX GHIMPATI [0000198E]

Toti senzorii

Date Temperatura solului [C]Precipitatii [mm]Voltaj baterie [mV]Leaf Wetness [Min]HC Air temperature [C]HC Relative humidity [%]Punctul de roua [C]
medieminmaxsumaultimatimpmedieminmaxmediemediemin
2019-04-17 19:00:00 11.2 11.2 11.2 0 6894 9.21 9.13 9.3 100 9.2 9.1
2019-04-17 19:10:00 11.1 11 11.2 0 6854 9.06 9.05 9.07 100 9 9
2019-04-17 19:20:00 11.1 11.1 11.1 0 6864 9.38 9.32 9.44 100 9.3 9.3
2019-04-17 19:30:00 11 10.9 11.1 0 6884 9.41 9.39 9.44 100 9.3 9.3
2019-04-17 19:40:00 10.9 10.8 11 0 6874 9.38 9.36 9.4 100 9.3 9.3
2019-04-17 19:50:00 10.8 10.8 10.9 0 6884 9.4 9.39 9.41 100 9.3 9.3
2019-04-17 20:00:00 10.7 10.7 10.8 0 6884 9.37 9.37 9.38 100 9.3 9.3
2019-04-17 20:10:00 10.7 10.7 10.7 0 6844 9.43 9.42 9.45 100 9.4 9.4
2019-04-17 20:20:00 10.7 10.6 10.8 0 6864 9.39 9.39 9.4 100 9.3 9.3
2019-04-17 20:30:00 10.6 10.6 10.7 0 6864 9.38 9.38 9.39 100 9.3 9.3
2019-04-17 20:40:00 10.6 10.6 10.6 0 6874 9.35 9.34 9.36 100 9.3 9.3
2019-04-17 20:50:00 10.6 10.6 10.6 0 6874 9.32 9.32 9.33 100 9.3 9.3
2019-04-17 21:00:00 10.6 10.6 10.6 0 6874 9.27 9.24 9.31 100 9.2 9.2
2019-04-17 21:10:00 10.6 10.6 10.6 0 6834 9.21 9.19 9.24 100 9.1 9.1
2019-04-17 21:20:00 10.4 10.3 10.5 0 6864 9.15 9.14 9.16 100 9.1 9.1
2019-04-17 21:30:00 10.2 10.2 10.3 0 6864 9.08 9.07 9.1 100 9 9
2019-04-17 21:40:00 10.3 10.2 10.5 0 6864 8.98 8.93 9.03 100 8.9 8.9
2019-04-17 21:50:00 10.3 10.3 10.4 0 6864 8.89 8.86 8.93 100 8.8 8.8
2019-04-17 22:00:00 10.2 10.2 10.3 0 6874 8.81 8.8 8.82 100 8.8 8.8
2019-04-17 22:10:00 10.3 10.2 10.4 0 6826 8.7 8.66 8.75 100 8.6 8.6
2019-04-17 22:20:00 10.2 10.2 10.2 0 6844 8.57 8.54 8.61 100 8.5 8.5
2019-04-17 22:30:00 10.1 10 10.2 0 6854 8.44 8.42 8.46 100 8.4 8.4
2019-04-17 22:40:00 10.1 10.1 10.1 0 6854 8.36 8.35 8.38 100 8.3 8.3
2019-04-17 22:50:00 10.2 10.1 10.3 0 6864 8.34 8.34 8.35 100 8.3 8.3
2019-04-17 23:00:00 10.1 10.1 10.2 0 6864 8.37 8.37 8.38 100 8.3 8.3
2019-04-17 23:10:00 10.1 10.1 10.1 0 6826 8.39 8.38 8.4 100 8.3 8.3
2019-04-17 23:20:00 10 10 10 0 6844 8.43 8.42 8.44 100 8.4 8.4
2019-04-17 23:30:00 10 10 10 0 6844 8.42 8.41 8.43 100 8.4 8.4
2019-04-17 23:40:00 9.9 9.9 10 0 6854 8.35 8.34 8.37 100 8.3 8.3
2019-04-17 23:50:00 10 10 10 0 6854 8.29 8.29 8.3 100 8.2 8.2
2019-04-18 00:00:00 9.8 9.8 9.8 0 6854 8.3 8.29 8.31 100 8.2 8.2
2019-04-18 00:10:00 9.8 9.8 9.9 0 6786 8.31 8.3 8.32 100 8.3 8.3
2019-04-18 00:20:00 9.9 9.9 9.9 0 6826 8.34 8.33 8.35 100 8.3 8.3
2019-04-18 00:30:00 9.8 9.8 9.9 0 6834 8.39 8.37 8.41 100 8.3 8.3
2019-04-18 00:40:00 9.8 9.8 9.9 0 6834 8.49 8.48 8.5 100 8.4 8.4
2019-04-18 00:50:00 9.9 9.9 9.9 0 6844 8.51 8.5 8.53 100 8.5 8.5
2019-04-18 01:00:00 9.7 9.7 9.7 0 6854 8.55 8.54 8.57 100 8.5 8.5
2019-04-18 01:10:00 9.8 9.7 9.9 0 6806 8.58 8.56 8.6 100 8.5 8.5
2019-04-18 01:20:00 9.8 9.8 9.8 0 6834 8.64 8.62 8.67 100 8.6 8.6
2019-04-18 01:30:00 9.7 9.7 9.8 0 6834 8.73 8.73 8.74 100 8.7 8.7
2019-04-18 01:40:00 9.7 9.6 9.8 0 6834 8.75 8.75 8.76 100 8.7 8.7
2019-04-18 01:50:00 9.6 9.6 9.6 0 6844 8.78 8.78 8.79 100 8.7 8.7
2019-04-18 02:00:00 9.7 9.6 9.8 0 6844 8.75 8.74 8.76 100 8.7 8.7
2019-04-18 02:10:00 9.6 9.6 9.7 0 6806 8.73 8.71 8.76 100 8.7 8.7
2019-04-18 02:20:00 9.6 9.6 9.7 0 6816 8.66 8.65 8.67 100 8.6 8.6
2019-04-18 02:30:00 9.5 9.5 9.6 0 6834 8.6 8.59 8.62 100 8.5 8.5
2019-04-18 02:40:00 9.6 9.6 9.6 0 6834 8.54 8.53 8.55 100 8.5 8.5
2019-04-18 02:50:00 9.6 9.6 9.7 0 6834 8.47 8.46 8.49 100 8.4 8.4